sensor_id;sensor_type;location;lat;lon;timestamp;pressure;altitude;pressure_sealevel;temperature;humidity
15260;BME280;34462;51.368;12.364;2023-02-21T00:01:43;19409.41;;;-141.84;70.03
15260;BME280;34462;51.368;12.364;2023-02-21T00:04:29;19427.72;;;-141.84;69.89
15260;BME280;34462;51.368;12.364;2023-02-21T00:07:16;19435.84;;;-141.84;70.17
15260;BME280;34462;51.368;12.364;2023-02-21T00:10:03;19419.59;;;-141.84;70.20
15260;BME280;34462;51.368;12.364;2023-02-21T00:12:48;19452.09;;;-141.84;70.03
15260;BME280;34462;51.368;12.364;2023-02-21T00:15:34;19431.78;;;-141.84;70.01
15260;BME280;34462;51.368;12.364;2023-02-21T00:18:20;19405.34;;;-141.84;70.53
15260;BME280;34462;51.368;12.364;2023-02-21T00:21:06;19419.59;;;-141.84;69.92
15260;BME280;34462;51.368;12.364;2023-02-21T00:23:53;19452.09;;;-141.84;70.33
15260;BME280;34462;51.368;12.364;2023-02-21T00:26:39;19431.78;;;-141.84;70.50
15260;BME280;34462;51.368;12.364;2023-02-21T00:29:25;19452.09;;;-141.84;70.29
15260;BME280;34462;51.368;12.364;2023-02-21T00:32:10;19460.22;;;-141.84;70.41
15260;BME280;34462;51.368;12.364;2023-02-21T00:34:56;19431.78;;;-141.84;70.25
15260;BME280;34462;51.368;12.364;2023-02-21T00:37:42;19439.91;;;-141.84;70.24
15260;BME280;34462;51.368;12.364;2023-02-21T00:40:29;19429.75;;;-141.84;70.38
15260;BME280;34462;51.368;12.364;2023-02-21T00:43:14;19415.50;;;-141.84;70.08
15260;BME280;34462;51.368;12.364;2023-02-21T00:46:02;19443.97;;;-141.84;70.05
15260;BME280;34462;51.368;12.364;2023-02-21T00:48:49;19446.00;;;-141.84;69.92
15260;BME280;34462;51.368;12.364;2023-02-21T00:51:34;19448.03;;;-141.84;69.83
15260;BME280;34462;51.368;12.364;2023-02-21T00:54:20;19397.22;;;-141.84;70.31
15260;BME280;34462;51.368;12.364;2023-02-21T00:57:07;19409.41;;;-141.84;70.60
15260;BME280;34462;51.368;12.364;2023-02-21T00:59:53;19417.56;;;-141.84;70.78
15260;BME280;34462;51.368;12.364;2023-02-21T01:02:40;19435.84;;;-141.84;70.72
15260;BME280;34462;51.368;12.364;2023-02-21T01:05:26;19415.50;;;-141.84;71.35
15260;BME280;34462;51.368;12.364;2023-02-21T01:08:12;19423.66;;;-141.84;70.73
15260;BME280;34462;51.368;12.364;2023-02-21T01:10:58;19439.91;;;-141.84;70.15
15260;BME280;34462;51.368;12.364;2023-02-21T01:13:45;19425.69;;;-141.84;70.09
15260;BME280;34462;51.368;12.364;2023-02-21T01:16:32;19441.94;;;-141.84;70.46
15260;BME280;34462;51.368;12.364;2023-02-21T01:19:21;19415.50;;;-141.84;70.83
15260;BME280;34462;51.368;12.364;2023-02-21T01:22:10;19405.34;;;-141.84;70.78
15260;BME280;34462;51.368;12.364;2023-02-21T01:24:56;19413.47;;;-141.84;70.83
15260;BME280;34462;51.368;12.364;2023-02-21T01:27:42;19439.91;;;-141.84;70.00
15260;BME280;34462;51.368;12.364;2023-02-21T01:30:29;19399.25;;;-141.84;70.80
15260;BME280;34462;51.368;12.364;2023-02-21T01:33:15;19411.44;;;-141.84;70.99
15260;BME280;34462;51.368;12.364;2023-02-21T01:36:00;19409.41;;;-141.84;70.94
15260;BME280;34462;51.368;12.364;2023-02-21T01:38:48;19399.25;;;-141.84;71.15
15260;BME280;34462;51.368;12.364;2023-02-21T01:41:34;19433.81;;;-141.84;70.56
15260;BME280;34462;51.368;12.364;2023-02-21T01:44:35;19431.78;;;-141.84;70.72
15260;BME280;34462;51.368;12.364;2023-02-21T01:47:23;19421.63;;;-141.84;71.42
15260;BME280;34462;51.368;12.364;2023-02-21T01:50:17;19413.47;;;-141.84;70.82
15260;BME280;34462;51.368;12.364;2023-02-21T01:53:09;19425.69;;;-141.84;70.53
15260;BME280;34462;51.368;12.364;2023-02-21T01:55:59;19429.75;;;-141.84;70.81
15260;BME280;34462;51.368;12.364;2023-02-21T01:58:48;19401.28;;;-141.84;70.76
15260;BME280;34462;51.368;12.364;2023-02-21T02:01:40;19427.72;;;-141.84;71.20
15260;BME280;34462;51.368;12.364;2023-02-21T02:04:31;19374.88;;;-141.84;72.27
15260;BME280;34462;51.368;12.364;2023-02-21T02:07:18;19419.59;;;-141.84;71.50
15260;BME280;34462;51.368;12.364;2023-02-21T02:10:07;19391.13;;;-141.84;71.46
15260;BME280;34462;51.368;12.364;2023-02-21T02:13:19;19419.59;;;-141.84;71.83
15260;BME280;34462;51.368;12.364;2023-02-21T02:15:59;19450.06;;;-141.84;71.60
15260;BME280;34462;51.368;12.364;2023-02-21T02:19:02;19401.28;;;-141.84;72.05
15260;BME280;34462;51.368;12.364;2023-02-21T02:22:35;19370.81;;;-141.84;72.86
15260;BME280;34462;51.368;12.364;2023-02-21T02:25:26;19372.84;;;-141.84;72.71
15260;BME280;34462;51.368;12.364;2023-02-21T02:28:41;19370.81;;;-141.84;72.21
15260;BME280;34462;51.368;12.364;2023-02-21T02:31:39;19395.19;;;-141.84;71.93
15260;BME280;34462;51.368;12.364;2023-02-21T02:34:52;19397.22;;;-141.84;72.45
15260;BME280;34462;51.368;12.364;2023-02-21T02:37:30;19419.59;;;-141.84;71.98
15260;BME280;34462;51.368;12.364;2023-02-21T02:40:09;19415.50;;;-141.84;72.04
15260;BME280;34462;51.368;12.364;2023-02-21T02:42:57;19411.44;;;-141.84;72.62
15260;BME280;34462;51.368;12.364;2023-02-21T02:45:33;19397.22;;;-141.84;72.13
15260;BME280;34462;51.368;12.364;2023-02-21T02:48:13;19423.66;;;-141.84;72.48
15260;BME280;34462;51.368;12.364;2023-02-21T02:50:48;19391.13;;;-141.84;71.86
15260;BME280;34462;51.368;12.364;2023-02-21T02:53:22;19405.34;;;-141.84;71.99
15260;BME280;34462;51.368;12.364;2023-02-21T02:55:56;19409.41;;;-141.84;72.67
15260;BME280;34462;51.368;12.364;2023-02-21T02:58:27;19391.13;;;-141.84;72.73
15260;BME280;34462;51.368;12.364;2023-02-21T03:01:13;19397.22;;;-141.84;72.64
15260;BME280;34462;51.368;12.364;2023-02-21T03:04:11;19397.22;;;-141.84;73.01
15260;BME280;34462;51.368;12.364;2023-02-21T03:06:59;19374.88;;;-141.84;72.92
15260;BME280;34462;51.368;12.364;2023-02-21T03:09:40;19411.44;;;-141.84;72.60
15260;BME280;34462;51.368;12.364;2023-02-21T03:12:20;19397.22;;;-141.84;72.67
15260;BME280;34462;51.368;12.364;2023-02-21T03:15:05;19397.22;;;-141.84;73.23
15260;BME280;34462;51.368;12.364;2023-02-21T03:17:42;19358.63;;;-141.84;73.59
15260;BME280;34462;51.368;12.364;2023-02-21T03:20:14;19407.38;;;-141.84;73.38
15260;BME280;34462;51.368;12.364;2023-02-21T03:22:45;19368.78;;;-141.84;73.29
15260;BME280;34462;51.368;12.364;2023-02-21T03:25:17;19403.31;;;-141.84;73.22
15260;BME280;34462;51.368;12.364;2023-02-21T03:27:48;19431.78;;;-141.84;73.54
15260;BME280;34462;51.368;12.364;2023-02-21T03:30:19;19356.59;;;-141.84;73.35
15260;BME280;34462;51.368;12.364;2023-02-21T03:32:50;19356.59;;;-141.84;73.59
15260;BME280;34462;51.368;12.364;2023-02-21T03:35:19;19413.47;;;-141.84;73.41
15260;BME280;34462;51.368;12.364;2023-02-21T03:37:51;19362.69;;;-141.84;73.83
15260;BME280;34462;51.368;12.364;2023-02-21T03:40:23;19354.56;;;-141.84;72.90
15260;BME280;34462;51.368;12.364;2023-02-21T03:42:52;19376.91;;;-141.84;73.49
15260;BME280;34462;51.368;12.364;2023-02-21T03:45:21;19376.91;;;-141.84;73.65
15260;BME280;34462;51.368;12.364;2023-02-21T03:47:50;19389.09;;;-141.84;73.47
15260;BME280;34462;51.368;12.364;2023-02-21T03:50:18;19391.13;;;-141.84;74.01
15260;BME280;34462;51.368;12.364;2023-02-21T03:52:46;19399.25;;;-141.84;73.78
15260;BME280;34462;51.368;12.364;2023-02-21T03:55:16;19403.31;;;-141.84;73.87
15260;BME280;34462;51.368;12.364;2023-02-21T03:57:45;19403.31;;;-141.84;74.04
15260;BME280;34462;51.368;12.364;2023-02-21T04:00:14;19433.81;;;-141.84;73.89
15260;BME280;34462;51.368;12.364;2023-02-21T04:02:43;19354.56;;;-141.84;74.51
15260;BME280;34462;51.368;12.364;2023-02-21T04:05:11;19403.31;;;-141.84;74.40
15260;BME280;34462;51.368;12.364;2023-02-21T04:07:39;19378.94;;;-141.84;73.90
15260;BME280;34462;51.368;12.364;2023-02-21T04:10:08;19391.13;;;-141.84;73.97
15260;BME280;34462;51.368;12.364;2023-02-21T04:12:37;19372.84;;;-141.84;74.47
15260;BME280;34462;51.368;12.364;2023-02-21T04:15:06;19376.91;;;-141.84;74.32
15260;BME280;34462;51.368;12.364;2023-02-21T04:17:34;19370.81;;;-141.84;74.00
15260;BME280;34462;51.368;12.364;2023-02-21T04:20:03;19372.84;;;-141.84;74.65
15260;BME280;34462;51.368;12.364;2023-02-21T04:22:32;19383.00;;;-141.84;74.52
15260;BME280;34462;51.368;12.364;2023-02-21T04:25:00;19356.59;;;-141.84;74.74
15260;BME280;34462;51.368;12.364;2023-02-21T04:27:28;19338.28;;;-141.84;75.12
15260;BME280;34462;51.368;12.364;2023-02-21T04:29:57;19338.28;;;-141.84;75.38
15260;BME280;34462;51.368;12.364;2023-02-21T04:32:26;19301.72;;;-141.84;75.76
15260;BME280;34462;51.368;12.364;2023-02-21T04:34:54;19364.72;;;-141.84;75.16
15260;BME280;34462;51.368;12.364;2023-02-21T04:37:22;19336.25;;;-141.84;75.32
15260;BME280;34462;51.368;12.364;2023-02-21T04:39:50;19338.28;;;-141.84;75.45
15260;BME280;34462;51.368;12.364;2023-02-21T04:42:18;19309.84;;;-141.84;75.86
15260;BME280;34462;51.368;12.364;2023-02-21T04:44:46;19362.69;;;-141.84;74.57
15260;BME280;34462;51.368;12.364;2023-02-21T04:47:27;19358.63;;;-141.84;75.13
15260;BME280;34462;51.368;12.364;2023-02-21T04:49:55;19362.69;;;-141.84;75.24
15260;BME280;34462;51.368;12.364;2023-02-21T04:52:24;19350.50;;;-141.84;75.41
15260;BME280;34462;51.368;12.364;2023-02-21T04:54:52;19356.59;;;-141.84;75.21
15260;BME280;34462;51.368;12.364;2023-02-21T04:57:20;19372.84;;;-141.84;75.56
15260;BME280;34462;51.368;12.364;2023-02-21T04:59:56;19346.44;;;-141.84;75.47
15260;BME280;34462;51.368;12.364;2023-02-21T05:02:24;19305.78;;;-141.84;75.72
15260;BME280;34462;51.368;12.364;2023-02-21T05:04:54;19342.34;;;-141.84;75.38
15260;BME280;34462;51.368;12.364;2023-02-21T05:07:22;19342.34;;;-141.84;75.01
15260;BME280;34462;51.368;12.364;2023-02-21T05:09:51;19358.63;;;-141.84;74.93
15260;BME280;34462;51.368;12.364;2023-02-21T05:12:19;19366.75;;;-141.84;75.03
15260;BME280;34462;51.368;12.364;2023-02-21T05:14:47;19303.75;;;-141.84;75.43
15260;BME280;34462;51.368;12.364;2023-02-21T05:17:15;19334.22;;;-141.84;75.05
15260;BME280;34462;51.368;12.364;2023-02-21T05:19:45;19326.09;;;-141.84;75.49
15260;BME280;34462;51.368;12.364;2023-02-21T05:22:15;19346.44;;;-141.84;75.11
15260;BME280;34462;51.368;12.364;2023-02-21T05:24:46;19330.16;;;-141.84;75.76
15260;BME280;34462;51.368;12.364;2023-02-21T05:27:17;19322.03;;;-141.84;75.84
15260;BME280;34462;51.368;12.364;2023-02-21T05:29:46;19354.56;;;-141.84;75.17
15260;BME280;34462;51.368;12.364;2023-02-21T05:32:17;19352.53;;;-141.84;75.33
15260;BME280;34462;51.368;12.364;2023-02-21T05:34:45;19342.34;;;-141.84;75.88
15260;BME280;34462;51.368;12.364;2023-02-21T05:37:16;19356.59;;;-141.84;75.12
15260;BME280;34462;51.368;12.364;2023-02-21T05:39:47;19295.63;;;-141.84;75.14
15260;BME280;34462;51.368;12.364;2023-02-21T05:42:16;19360.66;;;-141.84;75.31
15260;BME280;34462;51.368;12.364;2023-02-21T05:44:45;19326.09;;;-141.84;74.94
15260;BME280;34462;51.368;12.364;2023-02-21T05:47:14;19320.00;;;-141.84;75.17
15260;BME280;34462;51.368;12.364;2023-02-21T05:49:43;19326.09;;;-141.84;75.26
15260;BME280;34462;51.368;12.364;2023-02-21T05:52:14;19340.31;;;-141.84;75.30
15260;BME280;34462;51.368;12.364;2023-02-21T05:54:44;19303.75;;;-141.84;75.35
15260;BME280;34462;51.368;12.364;2023-02-21T05:57:12;19303.75;;;-141.84;75.74
15260;BME280;34462;51.368;12.364;2023-02-21T05:59:40;19330.16;;;-141.84;76.09
15260;BME280;34462;51.368;12.364;2023-02-21T06:02:09;19311.88;;;-141.84;76.06
15260;BME280;34462;51.368;12.364;2023-02-21T06:04:37;19293.59;;;-141.84;75.79
15260;BME280;34462;51.368;12.364;2023-02-21T06:07:05;19350.50;;;-141.84;75.72
15260;BME280;34462;51.368;12.364;2023-02-21T06:09:34;19305.78;;;-141.84;76.01
15260;BME280;34462;51.368;12.364;2023-02-21T06:12:03;19313.91;;;-141.84;75.32
15260;BME280;34462;51.368;12.364;2023-02-21T06:14:32;19303.75;;;-141.84;75.70
15260;BME280;34462;51.368;12.364;2023-02-21T06:17:00;19342.34;;;-141.84;75.23
15260;BME280;34462;51.368;12.364;2023-02-21T06:19:29;19330.16;;;-141.84;75.14
15260;BME280;34462;51.368;12.364;2023-02-21T06:21:59;19320.00;;;-141.84;75.50
15260;BME280;34462;51.368;12.364;2023-02-21T06:24:27;19344.41;;;-141.84;75.13
15260;BME280;34462;51.368;12.364;2023-02-21T06:26:55;19338.28;;;-141.84;74.60
15260;BME280;34462;51.368;12.364;2023-02-21T06:29:25;19352.53;;;-141.84;74.89
15260;BME280;34462;51.368;12.364;2023-02-21T06:31:56;19289.53;;;-141.84;75.91
15260;BME280;34462;51.368;12.364;2023-02-21T06:34:25;19289.53;;;-141.84;75.75
15260;BME280;34462;51.368;12.364;2023-02-21T06:36:55;19352.53;;;-141.84;74.57
15260;BME280;34462;51.368;12.364;2023-02-21T06:39:23;19342.34;;;-141.84;74.43
15260;BME280;34462;51.368;12.364;2023-02-21T06:41:51;19322.03;;;-141.84;75.00
15260;BME280;34462;51.368;12.364;2023-02-21T06:44:20;19320.00;;;-141.84;75.24
15260;BME280;34462;51.368;12.364;2023-02-21T06:46:49;19324.06;;;-141.84;74.92
15260;BME280;34462;51.368;12.364;2023-02-21T06:49:20;19330.16;;;-141.84;75.15
15260;BME280;34462;51.368;12.364;2023-02-21T06:51:48;19348.47;;;-141.84;75.03
15260;BME280;34462;51.368;12.364;2023-02-21T06:54:16;19350.50;;;-141.84;75.00
15260;BME280;34462;51.368;12.364;2023-02-21T06:56:45;19350.50;;;-141.84;75.08
15260;BME280;34462;51.368;12.364;2023-02-21T06:59:13;19348.47;;;-141.84;75.21
15260;BME280;34462;51.368;12.364;2023-02-21T07:01:41;19307.81;;;-141.84;75.59
15260;BME280;34462;51.368;12.364;2023-02-21T07:04:12;19360.66;;;-141.84;75.05
15260;BME280;34462;51.368;12.364;2023-02-21T07:06:40;19348.47;;;-141.84;74.38
15260;BME280;34462;51.368;12.364;2023-02-21T07:09:08;19354.56;;;-141.84;74.78
15260;BME280;34462;51.368;12.364;2023-02-21T07:11:36;19346.44;;;-141.84;74.60
15260;BME280;34462;51.368;12.364;2023-02-21T07:14:04;19354.56;;;-141.84;74.33
15260;BME280;34462;51.368;12.364;2023-02-21T07:16:33;19427.72;;;-141.84;73.62
15260;BME280;34462;51.368;12.364;2023-02-21T07:19:01;19389.09;;;-141.84;73.53
15260;BME280;34462;51.368;12.364;2023-02-21T07:21:31;19407.38;;;-141.84;73.85
15260;BME280;34462;51.368;12.364;2023-02-21T07:23:59;19411.44;;;-141.84;73.45
15260;BME280;34462;51.368;12.364;2023-02-21T07:26:27;19378.94;;;-141.84;72.61
15260;BME280;34462;51.368;12.364;2023-02-21T07:28:55;19427.72;;;-141.84;72.23
15260;BME280;34462;51.368;12.364;2023-02-21T07:31:23;19425.69;;;-141.84;72.11
15260;BME280;34462;51.368;12.364;2023-02-21T07:33:52;19439.91;;;-141.84;72.08
15260;BME280;34462;51.368;12.364;2023-02-21T07:36:20;19437.88;;;-141.84;71.86
15260;BME280;34462;51.368;12.364;2023-02-21T07:38:50;19415.50;;;-141.84;71.92
15260;BME280;34462;51.368;12.364;2023-02-21T07:41:18;19421.63;;;-141.84;71.69
15260;BME280;34462;51.368;12.364;2023-02-21T07:43:46;19446.00;;;-141.84;71.69
15260;BME280;34462;51.368;12.364;2023-02-21T07:46:16;19439.91;;;-141.84;71.58
15260;BME280;34462;51.368;12.364;2023-02-21T07:48:44;19419.59;;;-141.84;71.43
15260;BME280;34462;51.368;12.364;2023-02-21T07:51:12;19435.84;;;-141.84;71.82
15260;BME280;34462;51.368;12.364;2023-02-21T07:53:41;19435.84;;;-141.84;71.92
15260;BME280;34462;51.368;12.364;2023-02-21T07:56:10;19443.97;;;-141.84;72.24
15260;BME280;34462;51.368;12.364;2023-02-21T07:58:39;19460.22;;;-141.84;71.79
15260;BME280;34462;51.368;12.364;2023-02-21T08:01:08;19454.13;;;-141.84;70.62
15260;BME280;34462;51.368;12.364;2023-02-21T08:03:36;19494.78;;;-141.84;70.22
15260;BME280;34462;51.368;12.364;2023-02-21T08:06:04;19454.13;;;-141.84;70.14
15260;BME280;34462;51.368;12.364;2023-02-21T08:08:33;19466.31;;;-141.84;70.61
15260;BME280;34462;51.368;12.364;2023-02-21T08:11:01;19486.66;;;-141.84;69.73
15260;BME280;34462;51.368;12.364;2023-02-21T08:13:31;19484.59;;;-141.84;69.92
15260;BME280;34462;51.368;12.364;2023-02-21T08:15:59;19482.56;;;-141.84;70.08
15260;BME280;34462;51.368;12.364;2023-02-21T08:18:27;19466.31;;;-141.84;69.65
15260;BME280;34462;51.368;12.364;2023-02-21T08:20:55;19517.13;;;-141.84;69.50
15260;BME280;34462;51.368;12.364;2023-02-21T08:23:24;19478.50;;;-141.84;69.01
15260;BME280;34462;51.368;12.364;2023-02-21T08:25:52;19490.72;;;-141.84;69.51
15260;BME280;34462;51.368;12.364;2023-02-21T08:28:20;19531.34;;;-141.84;69.49
15260;BME280;34462;51.368;12.364;2023-02-21T08:30:49;19511.03;;;-141.84;68.71
15260;BME280;34462;51.368;12.364;2023-02-21T08:33:19;19580.13;;;-141.84;68.57
15260;BME280;34462;51.368;12.364;2023-02-21T08:35:47;19539.47;;;-141.84;68.94
15260;BME280;34462;51.368;12.364;2023-02-21T08:38:17;19574.03;;;-141.84;68.43
15260;BME280;34462;51.368;12.364;2023-02-21T08:40:46;19535.41;;;-141.84;68.82
15260;BME280;34462;51.368;12.364;2023-02-21T08:43:14;19578.09;;;-141.84;68.23
15260;BME280;34462;51.368;12.364;2023-02-21T08:45:42;19622.81;;;-141.84;67.58
15260;BME280;34462;51.368;12.364;2023-02-21T08:48:11;19582.16;;;-141.84;67.59
15260;BME280;34462;51.368;12.364;2023-02-21T08:50:40;19578.09;;;-141.84;68.05
15260;BME280;34462;51.368;12.364;2023-02-21T08:53:10;19616.72;;;-141.84;67.55
15260;BME280;34462;51.368;12.364;2023-02-21T08:55:41;19606.53;;;-141.84;67.41
15260;BME280;34462;51.368;12.364;2023-02-21T08:58:11;19620.78;;;-141.84;66.78
15260;BME280;34462;51.368;12.364;2023-02-21T09:00:40;19614.66;;;-141.84;67.38
15260;BME280;34462;51.368;12.364;2023-02-21T09:03:08;19553.72;;;-141.84;67.99
15260;BME280;34462;51.368;12.364;2023-02-21T09:05:38;19567.94;;;-141.84;68.72
15260;BME280;34462;51.368;12.364;2023-02-21T09:08:06;19557.78;;;-141.84;68.71
15260;BME280;34462;51.368;12.364;2023-02-21T09:10:36;19553.72;;;-141.84;68.31
15260;BME280;34462;51.368;12.364;2023-02-21T09:13:06;19563.88;;;-141.84;68.15
15260;BME280;34462;51.368;12.364;2023-02-21T09:15:34;19590.28;;;-141.84;67.98
15260;BME280;34462;51.368;12.364;2023-02-21T09:18:03;19602.47;;;-141.84;67.57
15260;BME280;34462;51.368;12.364;2023-02-21T09:20:32;19598.41;;;-141.84;67.17
15260;BME280;34462;51.368;12.364;2023-02-21T09:23:01;19618.75;;;-141.84;66.70
15260;BME280;34462;51.368;12.364;2023-02-21T09:25:30;19632.97;;;-141.84;66.15
15260;BME280;34462;51.368;12.364;2023-02-21T09:27:58;19620.78;;;-141.84;66.28
15260;BME280;34462;51.368;12.364;2023-02-21T09:30:27;19669.53;;;-141.84;65.08
15260;BME280;34462;51.368;12.364;2023-02-21T09:32:56;19657.34;;;-141.84;65.49
15260;BME280;34462;51.368;12.364;2023-02-21T09:35:25;19675.63;;;-141.84;65.76
15260;BME280;34462;51.368;12.364;2023-02-21T09:37:57;19655.31;;;-141.84;65.53
15260;BME280;34462;51.368;12.364;2023-02-21T09:40:36;19665.47;;;-141.84;64.92
15260;BME280;34462;51.368;12.364;2023-02-21T09:43:13;19671.56;;;-141.84;65.46
15260;BME280;34462;51.368;12.364;2023-02-21T09:45:43;19702.06;;;-141.84;65.40
15260;BME280;34462;51.368;12.364;2023-02-21T09:48:14;19679.72;;;-141.84;65.52
15260;BME280;34462;51.368;12.364;2023-02-21T09:50:47;19667.50;;;-141.84;65.39
15260;BME280;34462;51.368;12.364;2023-02-21T09:53:21;19677.66;;;-141.84;65.28
15260;BME280;34462;51.368;12.364;2023-02-21T09:55:56;19693.94;;;-141.84;65.30
15260;BME280;34462;51.368;12.364;2023-02-21T09:58:26;19677.66;;;-141.84;65.32
15260;BME280;34462;51.368;12.364;2023-02-21T10:01:02;19657.34;;;-141.84;65.17
15260;BME280;34462;51.368;12.364;2023-02-21T10:03:52;19702.06;;;-141.84;65.28
15260;BME280;34462;51.368;12.364;2023-02-21T10:06:37;19734.56;;;-141.84;65.04
15260;BME280;34462;51.368;12.364;2023-02-21T10:09:23;19655.31;;;-141.84;65.58
15260;BME280;34462;51.368;12.364;2023-02-21T10:12:07;19655.31;;;-141.84;66.33
15260;BME280;34462;51.368;12.364;2023-02-21T10:14:55;19651.25;;;-141.84;66.44
15260;BME280;34462;51.368;12.364;2023-02-21T10:17:33;19661.41;;;-141.84;65.67
15260;BME280;34462;51.368;12.364;2023-02-21T10:20:12;19645.16;;;-141.84;65.21
15260;BME280;34462;51.368;12.364;2023-02-21T10:22:44;19681.75;;;-141.84;65.79
15260;BME280;34462;51.368;12.364;2023-02-21T10:25:22;19643.13;;;-141.84;65.92
15260;BME280;34462;51.368;12.364;2023-02-21T10:27:54;19683.78;;;-141.84;66.39
15260;BME280;34462;51.368;12.364;2023-02-21T10:30:31;19645.16;;;-141.84;66.89
15260;BME280;34462;51.368;12.364;2023-02-21T10:33:02;19626.88;;;-141.84;66.34
15260;BME280;34462;51.368;12.364;2023-02-21T10:35:32;19661.41;;;-141.84;66.19
15260;BME280;34462;51.368;12.364;2023-02-21T10:38:05;19645.16;;;-141.84;66.78
15260;BME280;34462;51.368;12.364;2023-02-21T10:40:38;19679.72;;;-141.84;66.24
15260;BME280;34462;51.368;12.364;2023-02-21T10:43:15;19667.50;;;-141.84;66.04
15260;BME280;34462;51.368;12.364;2023-02-21T10:45:52;19659.38;;;-141.84;66.11
15260;BME280;34462;51.368;12.364;2023-02-21T10:48:29;19712.22;;;-141.84;64.93
15260;BME280;34462;51.368;12.364;2023-02-21T10:51:08;19704.09;;;-141.84;63.99
15260;BME280;34462;51.368;12.364;2023-02-21T10:53:39;19704.09;;;-141.84;64.97
15260;BME280;34462;51.368;12.364;2023-02-21T10:56:22;19712.22;;;-141.84;65.03
15260;BME280;34462;51.368;12.364;2023-02-21T10:58:55;19734.56;;;-141.84;64.71
15260;BME280;34462;51.368;12.364;2023-02-21T11:01:42;19683.78;;;-141.84;64.76
15260;BME280;34462;51.368;12.364;2023-02-21T11:04:26;19683.78;;;-141.84;64.83
15260;BME280;34462;51.368;12.364;2023-02-21T11:06:58;19685.81;;;-141.84;64.70
15260;BME280;34462;51.368;12.364;2023-02-21T11:09:38;19720.34;;;-141.84;64.43
15260;BME280;34462;51.368;12.364;2023-02-21T11:12:19;19710.19;;;-141.84;64.06
15260;BME280;34462;51.368;12.364;2023-02-21T11:17:42;19724.41;;;-141.84;65.02
15260;BME280;34462;51.368;12.364;2023-02-21T11:20:19;19734.56;;;-141.84;63.97
15260;BME280;34462;51.368;12.364;2023-02-21T11:22:50;19726.44;;;-141.84;64.10
15260;BME280;34462;51.368;12.364;2023-02-21T11:25:23;19740.69;;;-141.84;64.26
15260;BME280;34462;51.368;12.364;2023-02-21T11:28:03;19732.53;;;-141.84;63.92
15260;BME280;34462;51.368;12.364;2023-02-21T11:30:35;19706.13;;;-141.84;64.76
15260;BME280;34462;51.368;12.364;2023-02-21T11:33:08;19647.19;;;-141.84;65.79
15260;BME280;34462;51.368;12.364;2023-02-21T11:35:45;19659.38;;;-141.84;65.83
15260;BME280;34462;51.368;12.364;2023-02-21T11:38:34;19661.41;;;-141.84;66.15
15260;BME280;34462;51.368;12.364;2023-02-21T11:41:16;19663.44;;;-141.84;65.83
15260;BME280;34462;51.368;12.364;2023-02-21T11:43:46;19606.53;;;-141.84;66.32
15260;BME280;34462;51.368;12.364;2023-02-21T11:46:33;19665.47;;;-141.84;66.17
15260;BME280;34462;51.368;12.364;2023-02-21T11:49:16;19683.78;;;-141.84;65.74
15260;BME280;34462;51.368;12.364;2023-02-21T11:51:48;19700.03;;;-141.84;65.37
15260;BME280;34462;51.368;12.364;2023-02-21T11:54:26;19683.78;;;-141.84;65.02
15260;BME280;34462;51.368;12.364;2023-02-21T11:57:04;19718.31;;;-141.84;65.37
15260;BME280;34462;51.368;12.364;2023-02-21T11:59:45;19722.38;;;-141.84;64.20
15260;BME280;34462;51.368;12.364;2023-02-21T12:02:44;19761.00;;;-141.84;63.64
15260;BME280;34462;51.368;12.364;2023-02-21T12:05:34;19769.13;;;-141.84;63.78
15260;BME280;34462;51.368;12.364;2023-02-21T12:08:35;19726.44;;;-141.84;64.32
15260;BME280;34462;51.368;12.364;2023-02-21T12:11:21;19750.84;;;-141.84;64.57
15260;BME280;34462;51.368;12.364;2023-02-21T12:14:09;19809.78;;;-141.84;63.52
15260;BME280;34462;51.368;12.364;2023-02-21T12:16:54;19821.97;;;-141.84;62.51
15260;BME280;34462;51.368;12.364;2023-02-21T12:19:45;19850.41;;;-141.84;62.37
15260;BME280;34462;51.368;12.364;2023-02-21T12:22:34;19864.66;;;-141.84;61.61
15260;BME280;34462;51.368;12.364;2023-02-21T12:25:19;19882.94;;;-141.84;61.69
15260;BME280;34462;51.368;12.364;2023-02-21T12:27:58;19860.59;;;-141.84;60.95
15260;BME280;34462;51.368;12.364;2023-02-21T12:31:04;19846.34;;;-141.84;60.92
15260;BME280;34462;51.368;12.364;2023-02-21T12:33:43;19868.72;;;-141.84;61.05
15260;BME280;34462;51.368;12.364;2023-02-21T12:36:33;19848.38;;;-141.84;61.71
15260;BME280;34462;51.368;12.364;2023-02-21T12:39:20;19842.28;;;-141.84;62.05
15260;BME280;34462;51.368;12.364;2023-02-21T12:42:18;19805.72;;;-141.84;62.35
15260;BME280;34462;51.368;12.364;2023-02-21T12:45:04;19765.06;;;-141.84;62.88
15260;BME280;34462;51.368;12.364;2023-02-21T12:47:43;19797.59;;;-141.84;62.64
15260;BME280;34462;51.368;12.364;2023-02-21T12:50:20;19728.47;;;-141.84;63.45
15260;BME280;34462;51.368;12.364;2023-02-21T12:52:58;19726.44;;;-141.84;64.16
15260;BME280;34462;51.368;12.364;2023-02-21T12:55:35;19698.00;;;-141.84;64.01
15260;BME280;34462;51.368;12.364;2023-02-21T12:58:15;19779.28;;;-141.84;63.54
15260;BME280;34462;51.368;12.364;2023-02-21T13:00:53;19817.91;;;-141.84;62.42
15260;BME280;34462;51.368;12.364;2023-02-21T13:03:41;19813.84;;;-141.84;62.30
15260;BME280;34462;51.368;12.364;2023-02-21T13:06:20;19750.84;;;-141.84;63.12
15260;BME280;34462;51.368;12.364;2023-02-21T13:09:16;19742.72;;;-141.84;63.61
15260;BME280;34462;51.368;12.364;2023-02-21T13:11:59;19724.41;;;-141.84;64.02
15260;BME280;34462;51.368;12.364;2023-02-21T13:14:36;19728.47;;;-141.84;64.02
15260;BME280;34462;51.368;12.364;2023-02-21T13:17:09;19730.50;;;-141.84;64.23
15260;BME280;34462;51.368;12.364;2023-02-21T13:19:46;19718.31;;;-141.84;63.90